createdAt,value
2023-05-11T00:01:15.199Z,99.90
2023-05-11T00:03:25.900Z,99.90
2023-05-11T00:06:04.706Z,99.90
2023-05-11T00:08:30.093Z,99.90
2023-05-11T00:11:02.132Z,99.90
2023-05-11T00:13:34.504Z,99.90
2023-05-11T00:16:05.804Z,99.90
2023-05-11T00:18:38.332Z,99.90
2023-05-11T00:21:09.733Z,99.90
2023-05-11T00:23:41.713Z,99.90
2023-05-11T00:26:12.947Z,99.90
2023-05-11T00:28:45.398Z,99.90
2023-05-11T00:31:18.428Z,99.90
2023-05-11T00:33:55.466Z,99.90
2023-05-11T00:36:34.306Z,99.90
2023-05-11T00:39:05.356Z,99.90
2023-05-11T00:41:40.130Z,99.90
2023-05-11T00:44:10.787Z,99.90
2023-05-11T00:46:43.777Z,99.90
2023-05-11T00:49:17.150Z,99.90
2023-05-11T00:51:49.668Z,99.90
2023-05-11T00:54:20.973Z,99.90
2023-05-11T00:56:52.138Z,99.90
2023-05-11T00:59:23.245Z,99.90
2023-05-11T01:01:54.252Z,99.90
2023-05-11T01:04:25.351Z,99.90
2023-05-11T01:07:08.014Z,99.90
2023-05-11T01:09:49.854Z,99.90
2023-05-11T01:12:39.871Z,99.90
2023-05-11T01:15:19.985Z,99.90
2023-05-11T01:18:05.337Z,99.90
2023-05-11T01:20:37.231Z,99.90
2023-05-11T01:23:45.636Z,99.90
2023-05-11T01:26:31.046Z,99.90
2023-05-11T01:29:20.590Z,99.90
2023-05-11T01:31:54.860Z,99.90
2023-05-11T01:34:28.696Z,99.90
2023-05-11T01:37:02.018Z,99.90
2023-05-11T01:39:38.688Z,99.90
2023-05-11T01:42:13.527Z,99.90
2023-05-11T01:44:46.546Z,99.90
2023-05-11T01:47:20.400Z,99.90
2023-05-11T01:49:53.411Z,99.90
2023-05-11T01:52:27.212Z,99.90
2023-05-11T01:54:59.836Z,99.90
2023-05-11T01:57:33.549Z,99.90
2023-05-11T02:00:05.262Z,99.90
2023-05-11T02:02:38.182Z,99.90
2023-05-11T02:05:10.824Z,99.90
2023-05-11T02:07:43.549Z,99.90
2023-05-11T02:10:17.044Z,99.90
2023-05-11T02:12:49.821Z,99.90
2023-05-11T02:15:22.747Z,99.90
2023-05-11T02:17:55.585Z,99.90
2023-05-11T02:20:28.768Z,99.90
2023-05-11T02:23:00.889Z,99.90
2023-05-11T02:25:32.235Z,99.90
2023-05-11T02:28:04.390Z,99.90
2023-05-11T02:30:37.654Z,99.90
2023-05-11T02:33:10.671Z,99.90
2023-05-11T02:35:44.466Z,99.90
2023-05-11T02:38:16.784Z,99.90
2023-05-11T02:40:53.182Z,99.90
2023-05-11T02:43:29.659Z,99.90
2023-05-11T02:46:09.810Z,99.90
2023-05-11T02:48:46.631Z,99.90
2023-05-11T02:51:19.657Z,99.90
2023-05-11T02:53:57.054Z,99.90
2023-05-11T02:56:28.285Z,99.90
2023-05-11T02:59:14.989Z,99.90
2023-05-11T03:01:45.557Z,99.90
2023-05-11T03:04:16.947Z,99.90
2023-05-11T03:16:21.344Z,99.90
2023-05-11T03:18:53.490Z,99.90
2023-05-11T03:21:26.617Z,99.90
2023-05-11T03:23:59.054Z,99.90
2023-05-11T03:26:35.636Z,99.90
2023-05-11T03:29:09.003Z,99.90
2023-05-11T03:31:39.853Z,99.90
2023-05-11T03:34:11.118Z,99.90
2023-05-11T03:36:44.826Z,99.90
2023-05-11T03:39:21.152Z,99.90
2023-05-11T03:41:54.611Z,99.90
2023-05-11T03:44:26.109Z,99.90
2023-05-11T03:46:58.886Z,99.90
2023-05-11T03:49:31.159Z,99.90
2023-05-11T03:52:02.901Z,99.90
2023-05-11T03:54:34.088Z,99.90
2023-05-11T03:57:05.120Z,99.90
2023-05-11T03:59:35.974Z,99.90
2023-05-11T04:02:07.141Z,99.90
2023-05-11T04:04:40.704Z,99.90
2023-05-11T04:07:11.457Z,99.90
2023-05-11T04:09:42.799Z,99.90
2023-05-11T04:12:13.736Z,99.90
2023-05-11T04:14:44.673Z,99.90
2023-05-11T04:17:16.121Z,99.90
2023-05-11T04:19:47.526Z,99.90
2023-05-11T04:22:18.709Z,99.90
2023-05-11T04:24:49.667Z,99.90
2023-05-11T04:27:40.848Z,99.90
2023-05-11T04:30:12.525Z,99.90
2023-05-11T04:32:45.816Z,99.90
2023-05-11T04:35:16.279Z,99.90
2023-05-11T04:37:47.594Z,99.90
2023-05-11T04:40:19.136Z,99.90
2023-05-11T04:42:50.010Z,99.90
2023-05-11T04:45:21.710Z,99.90
2023-05-11T04:47:52.517Z,99.90
2023-05-11T04:50:23.452Z,99.90
2023-05-11T04:52:57.018Z,99.90
2023-05-11T04:57:58.453Z,99.90
2023-05-11T05:00:29.373Z,99.90
2023-05-11T05:03:00.368Z,99.90
2023-05-11T05:05:31.194Z,99.50
2023-05-11T05:08:02.039Z,99.20
2023-05-11T05:10:33.184Z,99.50
2023-05-11T05:13:04.038Z,99.90
2023-05-11T05:15:35.257Z,97.90
2023-05-11T05:18:06.578Z,97.40
2023-05-11T05:20:37.380Z,97.70
2023-05-11T05:23:08.236Z,99.20
2023-05-11T05:25:39.638Z,97.50
2023-05-11T05:28:10.695Z,97.50
2023-05-11T05:30:42.109Z,97.00
2023-05-11T05:33:13.104Z,96.50
2023-05-11T05:35:48.729Z,96.80
2023-05-11T05:38:21.586Z,97.10
2023-05-11T05:40:52.924Z,96.60
2023-05-11T05:43:50.524Z,98.10
2023-05-11T05:46:08.907Z,96.60
2023-05-11T05:48:48.131Z,96.10
2023-05-11T05:51:14.887Z,96.30
2023-05-11T05:53:49.096Z,95.70
2023-05-11T05:56:25.292Z,96.60
2023-05-11T05:58:55.718Z,95.50
2023-05-11T06:01:29.901Z,95.30
2023-05-11T06:04:25.224Z,95.80
2023-05-11T06:06:44.608Z,96.30
2023-05-11T06:09:16.764Z,96.80
2023-05-11T06:11:54.374Z,96.90
2023-05-11T06:14:35.887Z,96.80
2023-05-11T06:17:10.778Z,96.90
2023-05-11T06:19:42.687Z,97.20
2023-05-11T06:22:17.002Z,97.50
2023-05-11T06:27:24.607Z,96.50
2023-05-11T06:29:58.315Z,96.70
2023-05-11T06:32:31.414Z,96.10
2023-05-11T06:35:09.566Z,95.90
2023-05-11T06:37:42.709Z,95.70
2023-05-11T06:40:14.615Z,96.60
2023-05-11T06:42:46.491Z,96.30
2023-05-11T06:45:18.230Z,95.30
2023-05-11T06:48:13.037Z,95.40
2023-05-11T06:50:31.521Z,95.10
2023-05-11T06:53:03.616Z,95.00
2023-05-11T06:55:43.305Z,94.90
2023-05-11T06:58:15.635Z,94.80
2023-05-11T07:00:46.838Z,94.90
2023-05-11T07:03:19.319Z,94.40
2023-05-11T07:06:08.342Z,94.60
2023-05-11T07:08:41.002Z,94.60
2023-05-11T07:11:18.694Z,94.20
2023-05-11T07:13:54.566Z,94.10
2023-05-11T07:16:25.611Z,94.80
2023-05-11T07:18:57.421Z,94.30
2023-05-11T07:21:30.423Z,93.50
2023-05-11T07:24:02.178Z,93.70
2023-05-11T07:26:33.231Z,93.60
2023-05-11T07:29:04.915Z,94.60
2023-05-11T07:31:37.414Z,94.20
2023-05-11T07:34:08.463Z,95.20
2023-05-11T07:36:39.491Z,95.30
2023-05-11T07:39:11.868Z,95.80
2023-05-11T07:41:43.086Z,94.90
2023-05-11T07:44:14.504Z,95.10
2023-05-11T07:46:46.093Z,95.60
2023-05-11T07:49:20.748Z,95.10
2023-05-11T07:51:49.361Z,94.20
2023-05-11T07:54:21.716Z,93.70
2023-05-11T07:56:53.542Z,93.80
2023-05-11T07:59:24.657Z,93.70
2023-05-11T08:01:55.829Z,93.70
2023-05-11T08:04:27.190Z,93.80
2023-05-11T08:06:59.820Z,94.00
2023-05-11T08:09:31.110Z,93.70
2023-05-11T08:12:03.325Z,94.00
2023-05-11T08:14:34.483Z,94.10
2023-05-11T08:17:06.977Z,94.60
2023-05-11T08:19:40.125Z,94.00
2023-05-11T08:22:11.810Z,94.50
2023-05-11T08:24:43.325Z,94.60
2023-05-11T08:27:16.218Z,94.50
2023-05-11T08:29:47.957Z,93.70
2023-05-11T08:32:19.015Z,94.00
2023-05-11T08:34:50.838Z,93.70
2023-05-11T08:37:22.274Z,94.60
2023-05-11T08:39:55.308Z,94.60
2023-05-11T08:42:27.823Z,94.40
2023-05-11T08:45:00.457Z,94.00
2023-05-11T08:47:35.960Z,93.60
2023-05-11T08:50:07.782Z,93.50
2023-05-11T08:52:41.375Z,93.30
2023-05-11T08:55:13.009Z,93.90
2023-05-11T08:57:45.956Z,93.70
2023-05-11T09:00:18.591Z,93.40
2023-05-11T09:02:49.732Z,93.80
2023-05-11T09:05:23.424Z,94.10
2023-05-11T09:07:56.418Z,94.50
2023-05-11T09:10:27.969Z,93.90
2023-05-11T09:12:58.925Z,93.80
2023-05-11T09:15:36.991Z,93.40
2023-05-11T09:18:02.204Z,93.60
2023-05-11T09:20:34.250Z,93.60
2023-05-11T09:23:05.253Z,93.80
2023-05-11T09:25:36.355Z,93.50
2023-05-11T09:28:07.341Z,93.70
2023-05-11T09:30:38.059Z,93.40
2023-05-11T09:33:08.898Z,93.40
2023-05-11T09:35:39.617Z,93.50
2023-05-11T09:38:12.556Z,93.10
2023-05-11T09:40:57.290Z,93.20
2023-05-11T09:43:30.318Z,92.90
2023-05-11T09:46:06.337Z,93.40
2023-05-11T09:48:37.375Z,93.30
2023-05-11T09:51:10.236Z,93.50
2023-05-11T09:53:48.074Z,93.40
2023-05-11T09:56:18.865Z,93.50
2023-05-11T09:58:55.580Z,93.60
2023-05-11T10:01:36.674Z,93.40
2023-05-11T10:04:21.492Z,93.30
2023-05-11T10:06:54.238Z,93.60
2023-05-11T10:09:26.635Z,93.70
2023-05-11T10:11:59.105Z,93.60
2023-05-11T10:14:32.811Z,93.70
2023-05-11T10:17:05.369Z,93.60
2023-05-11T10:19:36.329Z,94.00
2023-05-11T10:22:08.556Z,93.60
2023-05-11T10:24:40.608Z,93.60
2023-05-11T10:27:12.436Z,93.70
2023-05-11T10:29:47.184Z,93.60
2023-05-11T10:32:19.265Z,93.70
2023-05-11T10:34:52.045Z,93.70
2023-05-11T10:37:25.370Z,93.90
2023-05-11T10:39:55.932Z,93.70
2023-05-11T10:43:02.709Z,93.80
2023-05-11T10:45:36.009Z,94.00
2023-05-11T10:48:30.969Z,94.20
2023-05-11T10:51:22.801Z,94.00
2023-05-11T10:54:05.241Z,93.90
2023-05-11T10:57:08.211Z,94.00
2023-05-11T11:00:00.742Z,94.10
2023-05-11T11:02:40.124Z,94.00
2023-05-11T11:05:12.972Z,94.10
2023-05-11T11:08:09.535Z,94.10
2023-05-11T11:10:42.706Z,94.30
2023-05-11T11:13:15.231Z,94.30
2023-05-11T11:16:03.835Z,94.20
2023-05-11T11:18:35.454Z,94.20
2023-05-11T11:21:07.228Z,94.20
2023-05-11T11:23:46.752Z,94.20
2023-05-11T11:26:20.357Z,94.40
2023-05-11T11:29:01.336Z,94.40
2023-05-11T11:31:36.395Z,94.40
2023-05-11T11:34:33.454Z,94.50
2023-05-11T11:37:07.574Z,94.70
2023-05-11T11:39:52.136Z,94.50
2023-05-11T11:42:31.836Z,94.50
2023-05-11T11:45:23.092Z,94.70
2023-05-11T11:48:14.508Z,94.80
2023-05-11T11:50:49.569Z,94.80
2023-05-11T11:53:41.356Z,94.90
2023-05-11T11:56:19.177Z,94.90
2023-05-11T11:59:01.330Z,95.40
2023-05-11T12:01:34.498Z,95.00
2023-05-11T12:04:13.907Z,95.30
2023-05-11T12:06:47.799Z,95.30
2023-05-11T12:09:21.174Z,95.40
2023-05-11T12:11:53.486Z,95.50
2023-05-11T12:14:25.182Z,95.70
2023-05-11T12:17:06.718Z,95.70
2023-05-11T12:19:37.911Z,95.90
2023-05-11T12:22:10.032Z,96.00
2023-05-11T12:24:42.464Z,96.30
2023-05-11T12:27:13.536Z,96.30
2023-05-11T12:29:46.115Z,96.40
2023-05-11T12:32:17.784Z,96.50
2023-05-11T12:34:51.268Z,96.70
2023-05-11T12:37:22.863Z,96.70
2023-05-11T12:39:58.379Z,96.80
2023-05-11T12:42:29.858Z,96.90
2023-05-11T12:45:00.852Z,97.00
2023-05-11T12:47:32.069Z,97.20
2023-05-11T12:50:04.503Z,97.20
2023-05-11T12:52:55.804Z,97.20
2023-05-11T12:55:33.643Z,97.30
2023-05-11T12:58:15.615Z,97.30
2023-05-11T13:01:00.944Z,97.30
2023-05-11T13:03:51.224Z,97.40
2023-05-11T13:06:23.984Z,97.50
2023-05-11T13:08:54.980Z,97.60
2023-05-11T13:11:29.782Z,97.60
2023-05-11T13:14:00.909Z,97.70
2023-05-11T13:16:36.885Z,97.70
2023-05-11T13:19:12.062Z,97.70
2023-05-11T13:21:46.327Z,97.70
2023-05-11T13:24:23.783Z,97.70
2023-05-11T13:26:55.836Z,97.70
2023-05-11T13:29:28.290Z,97.70
2023-05-11T13:31:59.407Z,97.70
2023-05-11T13:34:30.824Z,97.80
2023-05-11T13:37:07.558Z,97.80
2023-05-11T13:39:38.506Z,97.80
2023-05-11T13:42:10.522Z,97.90
2023-05-11T13:44:42.833Z,97.90
2023-05-11T13:47:15.414Z,98.00
2023-05-11T13:49:48.304Z,98.00
2023-05-11T13:52:21.082Z,98.00
2023-05-11T13:54:52.400Z,98.00
2023-05-11T13:57:26.267Z,98.10
2023-05-11T13:59:58.010Z,98.20
2023-05-11T14:02:32.303Z,98.20
2023-05-11T14:05:03.389Z,98.30
2023-05-11T14:07:46.418Z,98.40
2023-05-11T14:10:07.634Z,98.20
2023-05-11T14:12:40.113Z,98.50
2023-05-11T14:15:11.880Z,98.50
2023-05-11T14:17:45.807Z,98.50
2023-05-11T14:20:17.804Z,98.60
2023-05-11T14:22:48.789Z,98.50
2023-05-11T14:25:20.162Z,98.50
2023-05-11T14:27:53.537Z,98.40
2023-05-11T14:30:25.146Z,98.30
2023-05-11T14:32:57.126Z,98.30
2023-05-11T14:35:28.423Z,98.20
2023-05-11T14:37:59.597Z,98.30
2023-05-11T14:40:30.600Z,98.30
2023-05-11T14:43:01.712Z,98.40
2023-05-11T14:45:32.761Z,98.50
2023-05-11T14:48:03.991Z,98.50
2023-05-11T14:50:35.883Z,98.60
2023-05-11T14:53:07.173Z,98.70
2023-05-11T14:55:39.080Z,98.80
2023-05-11T14:58:21.664Z,98.80
2023-05-11T15:01:15.038Z,98.90
2023-05-11T15:03:45.731Z,99.10
2023-05-11T15:13:14.895Z,99.80
2023-05-11T15:13:35.796Z,99.90
2023-05-11T15:14:48.824Z,99.90
2023-05-11T15:17:24.858Z,99.90
2023-05-11T15:20:26.099Z,99.90
2023-05-11T15:22:49.621Z,99.90
2023-05-11T15:25:21.215Z,99.90
2023-05-11T15:25:50.495Z,99.40
2023-05-11T15:27:55.202Z,99.90
2023-05-11T15:30:26.614Z,99.90
2023-05-11T15:33:08.937Z,99.90
2023-05-11T15:35:37.778Z,99.90
2023-05-11T15:38:09.222Z,99.90
2023-05-11T15:40:40.375Z,99.90
2023-05-11T15:43:14.561Z,99.90
2023-05-11T15:45:48.900Z,99.90
2023-05-11T15:48:20.796Z,99.90
2023-05-11T15:50:57.923Z,99.90
2023-05-11T15:53:34.462Z,99.90
2023-05-11T15:56:04.636Z,99.90
2023-05-11T15:58:36.255Z,99.90
2023-05-11T16:01:18.654Z,99.90
2023-05-11T16:03:46.862Z,99.90
2023-05-11T16:06:26.865Z,99.90
2023-05-11T16:12:12.834Z,99.90
2023-05-11T16:14:47.867Z,99.90
2023-05-11T16:17:23.392Z,99.90
2023-05-11T16:19:55.134Z,99.90
2023-05-11T16:22:26.698Z,99.90
2023-05-11T16:24:58.227Z,99.90
2023-05-11T16:27:35.185Z,99.90
2023-05-11T16:30:22.246Z,99.90
2023-05-11T16:32:45.052Z,99.90
2023-05-11T16:35:26.187Z,99.90
2023-05-11T16:38:05.722Z,99.90
2023-05-11T16:40:40.212Z,99.90
2023-05-11T16:43:12.282Z,99.90
2023-05-11T16:45:50.128Z,99.90
2023-05-11T16:50:55.851Z,99.90
2023-05-11T16:53:40.957Z,99.90
2023-05-11T16:56:13.091Z,99.90
2023-05-11T16:58:58.976Z,99.90
2023-05-11T17:01:34.318Z,99.90
2023-05-11T17:04:06.132Z,99.90
2023-05-11T17:06:46.928Z,99.90
2023-05-11T17:09:37.351Z,99.90
2023-05-11T17:12:20.071Z,99.90
2023-05-11T17:15:13.901Z,99.90
2023-05-11T17:18:05.173Z,99.90
2023-05-11T17:20:42.445Z,99.90
2023-05-11T17:23:21.043Z,99.90
2023-05-11T17:28:42.441Z,99.90
2023-05-11T17:31:16.250Z,99.90
2023-05-11T17:33:54.445Z,99.90
2023-05-11T17:36:25.739Z,99.90
2023-05-11T17:39:02.482Z,99.90
2023-05-11T17:56:12.728Z,99.90
2023-05-11T17:58:45.268Z,99.90
2023-05-11T18:01:23.138Z,99.90
2023-05-11T18:03:58.394Z,99.90
2023-05-11T18:06:29.544Z,99.90
2023-05-11T18:09:01.386Z,99.90
2023-05-11T18:11:32.838Z,99.90
2023-05-11T18:14:06.943Z,99.90
2023-05-11T18:16:39.496Z,99.90
2023-05-11T18:34:17.182Z,99.90
2023-05-11T18:36:48.431Z,99.90
2023-05-11T18:39:20.894Z,99.90
2023-05-11T18:41:52.135Z,99.90
2023-05-11T18:44:24.053Z,99.90
2023-05-11T18:46:55.247Z,99.90
2023-05-11T18:49:33.584Z,99.90
2023-05-11T18:52:05.433Z,99.90
2023-05-11T18:54:36.626Z,99.90
2023-05-11T18:57:11.894Z,99.90
2023-05-11T18:59:51.930Z,99.90
2023-05-11T19:02:22.842Z,99.90
2023-05-11T19:07:53.345Z,99.90
2023-05-11T19:10:25.792Z,99.90
2023-05-11T19:12:58.370Z,99.90
2023-05-11T19:15:35.219Z,99.90
2023-05-11T19:18:06.501Z,99.90
2023-05-11T19:20:39.126Z,99.90
2023-05-11T19:23:10.183Z,99.90
2023-05-11T19:25:42.475Z,99.90
2023-05-11T19:28:13.652Z,99.90
2023-05-11T19:30:44.639Z,99.90
2023-05-11T19:33:15.737Z,99.90
2023-05-11T19:35:46.927Z,99.90
2023-05-11T19:38:17.932Z,99.90
2023-05-11T19:40:52.185Z,99.90
2023-05-11T19:43:24.706Z,99.90
2023-05-11T19:45:55.672Z,99.90
2023-05-11T19:48:26.694Z,99.90
2023-05-11T19:50:57.803Z,99.90
2023-05-11T19:53:29.158Z,99.90
2023-05-11T19:56:01.077Z,99.90
2023-05-11T19:58:32.048Z,99.90
2023-05-11T20:01:03.118Z,99.90
2023-05-11T20:03:34.365Z,99.90
2023-05-11T20:06:05.542Z,99.90
2023-05-11T20:08:36.541Z,99.90
2023-05-11T20:11:08.018Z,99.90
2023-05-11T20:13:39.070Z,99.90
2023-05-11T20:16:10.092Z,99.90
2023-05-11T20:18:41.114Z,99.90
2023-05-11T20:21:12.354Z,99.90
2023-05-11T20:23:43.299Z,99.90
2023-05-11T20:26:14.484Z,99.90
2023-05-11T20:28:45.417Z,99.90
2023-05-11T20:31:17.002Z,99.90
2023-05-11T20:36:20.195Z,99.90
2023-05-11T20:38:51.199Z,99.90
2023-05-11T20:41:23.050Z,99.90
2023-05-11T20:43:56.619Z,99.90
2023-05-11T20:46:28.860Z,99.90
2023-05-11T20:49:00.166Z,99.90
2023-05-11T20:51:31.000Z,99.90
2023-05-11T20:54:04.280Z,99.90
2023-05-11T20:56:35.565Z,99.90
2023-05-11T20:59:07.102Z,99.90
2023-05-11T21:01:38.061Z,99.90
2023-05-11T21:04:09.224Z,99.90
2023-05-11T21:06:40.778Z,99.90
2023-05-11T21:09:12.082Z,99.90
2023-05-11T21:11:43.081Z,99.90
2023-05-11T21:14:16.839Z,99.90
2023-05-11T21:16:48.135Z,99.90
2023-05-11T21:19:19.727Z,99.90
2023-05-11T21:21:50.892Z,99.90
2023-05-11T21:24:21.961Z,99.90
2023-05-11T21:26:54.228Z,99.90
2023-05-11T21:29:25.167Z,99.90
2023-05-11T21:31:57.089Z,99.90
2023-05-11T21:34:28.629Z,99.90
2023-05-11T21:37:00.925Z,99.90
2023-05-11T21:39:31.897Z,99.90
2023-05-11T21:42:03.794Z,99.90
2023-05-11T21:44:37.287Z,99.90
2023-05-11T21:47:08.784Z,99.90
2023-05-11T21:49:39.833Z,99.90
2023-05-11T21:52:10.906Z,99.90
2023-05-11T21:54:41.841Z,99.90
2023-05-11T21:57:15.363Z,99.90
2023-05-11T21:59:46.355Z,99.90
2023-05-11T22:02:17.563Z,99.90
2023-05-11T22:04:48.543Z,99.90
2023-05-11T22:07:19.600Z,99.90
2023-05-11T22:09:50.689Z,99.90
2023-05-11T22:12:21.630Z,99.90
2023-05-11T22:14:52.698Z,99.90
2023-05-11T22:17:23.993Z,99.90
2023-05-11T22:19:54.937Z,99.90
2023-05-11T22:22:26.034Z,99.90
2023-05-11T22:24:57.006Z,99.90
2023-05-11T22:27:28.080Z,99.90
2023-05-11T22:29:59.048Z,99.90
2023-05-11T22:32:30.157Z,99.90
2023-05-11T22:35:03.143Z,99.90
2023-05-11T22:37:34.698Z,99.90
2023-05-11T22:40:06.449Z,99.90
2023-05-11T22:42:37.460Z,99.90
2023-05-11T22:45:09.537Z,99.90
2023-05-11T22:47:40.510Z,99.90
2023-05-11T22:50:13.224Z,99.90
2023-05-11T22:52:44.236Z,99.90
2023-05-11T22:55:15.447Z,99.90
2023-05-11T22:57:46.496Z,99.90
2023-05-11T23:00:21.057Z,99.90
2023-05-11T23:02:52.356Z,99.90
2023-05-11T23:05:23.923Z,99.90
2023-05-11T23:07:56.346Z,99.90
2023-05-11T23:10:28.792Z,99.90
2023-05-11T23:12:59.876Z,99.90
2023-05-11T23:15:37.325Z,99.90
2023-05-11T23:18:07.764Z,99.90
2023-05-11T23:20:41.065Z,99.90
2023-05-11T23:23:11.310Z,99.90
2023-05-11T23:25:45.644Z,99.90
2023-05-11T23:28:16.848Z,99.90
2023-05-11T23:30:48.322Z,99.90
2023-05-11T23:33:20.279Z,99.90
2023-05-11T23:35:51.289Z,99.90
2023-05-11T23:38:22.264Z,99.90
2023-05-11T23:40:53.588Z,99.90
2023-05-11T23:43:24.527Z,99.90
2023-05-11T23:45:57.136Z,99.90
2023-05-11T23:48:28.105Z,99.90
2023-05-11T23:50:59.060Z,99.90
2023-05-11T23:53:30.095Z,99.90
2023-05-11T23:56:01.046Z,99.90
2023-05-11T23:58:32.198Z,99.90
